sensor_id;sensor_type;location;lat;lon;timestamp;temperature;humidity
67769;DHT22;54569;52.018;5.584;2022-09-20T00:02:17;12.70;72.30
67769;DHT22;54569;52.018;5.584;2022-09-20T00:04:43;12.70;72.30
67769;DHT22;54569;52.018;5.584;2022-09-20T00:07:09;12.70;72.30
67769;DHT22;54569;52.018;5.584;2022-09-20T00:09:34;12.80;72.30
67769;DHT22;54569;52.018;5.584;2022-09-20T00:12:00;12.80;72.30
67769;DHT22;54569;52.018;5.584;2022-09-20T00:14:26;12.80;72.20
67769;DHT22;54569;52.018;5.584;2022-09-20T00:16:52;12.80;72.10
67769;DHT22;54569;52.018;5.584;2022-09-20T00:19:19;12.90;72.10
67769;DHT22;54569;52.018;5.584;2022-09-20T00:21:46;12.90;72.00
67769;DHT22;54569;52.018;5.584;2022-09-20T00:24:12;12.90;72.00
67769;DHT22;54569;52.018;5.584;2022-09-20T00:26:38;12.80;71.90
67769;DHT22;54569;52.018;5.584;2022-09-20T00:29:05;12.90;72.10
67769;DHT22;54569;52.018;5.584;2022-09-20T00:31:31;12.90;72.10
67769;DHT22;54569;52.018;5.584;2022-09-20T00:33:57;12.90;72.00
67769;DHT22;54569;52.018;5.584;2022-09-20T00:36:42;12.90;71.90
67769;DHT22;54569;52.018;5.584;2022-09-20T00:39:11;12.90;72.00
67769;DHT22;54569;52.018;5.584;2022-09-20T00:41:37;12.90;71.90
67769;DHT22;54569;52.018;5.584;2022-09-20T00:47:30;12.90;72.50
67769;DHT22;54569;52.018;5.584;2022-09-20T00:52:31;12.90;71.90
67769;DHT22;54569;52.018;5.584;2022-09-20T00:54:58;13.00;71.80
67769;DHT22;54569;52.018;5.584;2022-09-20T00:57:24;12.90;71.80
67769;DHT22;54569;52.018;5.584;2022-09-20T00:59:51;12.90;71.80
67769;DHT22;54569;52.018;5.584;2022-09-20T01:02:20;12.90;71.70
67769;DHT22;54569;52.018;5.584;2022-09-20T01:04:47;12.90;71.80
67769;DHT22;54569;52.018;5.584;2022-09-20T01:07:16;12.90;71.80
67769;DHT22;54569;52.018;5.584;2022-09-20T01:09:44;12.90;72.00
67769;DHT22;54569;52.018;5.584;2022-09-20T01:12:23;12.80;71.80
67769;DHT22;54569;52.018;5.584;2022-09-20T01:14:51;12.80;71.90
67769;DHT22;54569;52.018;5.584;2022-09-20T01:17:21;12.80;72.00
67769;DHT22;54569;52.018;5.584;2022-09-20T01:22:22;12.70;72.10
67769;DHT22;54569;52.018;5.584;2022-09-20T01:25:02;12.70;72.10
67769;DHT22;54569;52.018;5.584;2022-09-20T01:27:48;12.70;72.20
67769;DHT22;54569;52.018;5.584;2022-09-20T01:30:18;12.60;72.50
67769;DHT22;54569;52.018;5.584;2022-09-20T01:33:00;12.60;72.30
67769;DHT22;54569;52.018;5.584;2022-09-20T01:35:26;12.50;72.30
67769;DHT22;54569;52.018;5.584;2022-09-20T01:41:00;12.40;72.50
67769;DHT22;54569;52.018;5.584;2022-09-20T01:43:57;12.40;72.80
67769;DHT22;54569;52.018;5.584;2022-09-20T01:46:29;12.40;72.90
67769;DHT22;54569;52.018;5.584;2022-09-20T01:49:23;12.30;72.80
67769;DHT22;54569;52.018;5.584;2022-09-20T01:52:32;12.40;73.50
67769;DHT22;54569;52.018;5.584;2022-09-20T02:06:32;12.40;72.70
67769;DHT22;54569;52.018;5.584;2022-09-20T02:09:21;12.40;72.70
67769;DHT22;54569;52.018;5.584;2022-09-20T02:14:56;12.50;72.50
67769;DHT22;54569;52.018;5.584;2022-09-20T02:17:44;12.50;73.40
67769;DHT22;54569;52.018;5.584;2022-09-20T02:20:16;12.40;73.00
67769;DHT22;54569;52.018;5.584;2022-09-20T02:31:22;12.40;73.60
67769;DHT22;54569;52.018;5.584;2022-09-20T02:37:19;12.40;73.60
67769;DHT22;54569;52.018;5.584;2022-09-20T02:40:15;12.40;73.10
67769;DHT22;54569;52.018;5.584;2022-09-20T02:45:43;12.30;74.80
67769;DHT22;54569;52.018;5.584;2022-09-20T02:48:13;12.30;73.80
67769;DHT22;54569;52.018;5.584;2022-09-20T02:51:13;12.30;73.60
67769;DHT22;54569;52.018;5.584;2022-09-20T03:10:37;12.40;74.10
67769;DHT22;54569;52.018;5.584;2022-09-20T03:13:18;12.30;73.90
67769;DHT22;54569;52.018;5.584;2022-09-20T03:15:51;12.30;74.10
67769;DHT22;54569;52.018;5.584;2022-09-20T03:18:45;12.30;74.10
67769;DHT22;54569;52.018;5.584;2022-09-20T03:21:43;12.30;74.80
67769;DHT22;54569;52.018;5.584;2022-09-20T03:27:18;12.20;74.50
67769;DHT22;54569;52.018;5.584;2022-09-20T03:30:12;12.20;74.70
67769;DHT22;54569;52.018;5.584;2022-09-20T03:35:35;12.10;75.50
67769;DHT22;54569;52.018;5.584;2022-09-20T03:41:27;12.10;75.50
67769;DHT22;54569;52.018;5.584;2022-09-20T03:46:28;12.00;74.90
67769;DHT22;54569;52.018;5.584;2022-09-20T03:49:18;12.00;74.90
67769;DHT22;54569;52.018;5.584;2022-09-20T04:00:30;11.90;75.10
67769;DHT22;54569;52.018;5.584;2022-09-20T04:03:45;11.90;75.30
67769;DHT22;54569;52.018;5.584;2022-09-20T04:09:23;11.80;75.80
67769;DHT22;54569;52.018;5.584;2022-09-20T04:20:30;11.90;76.60
67769;DHT22;54569;52.018;5.584;2022-09-20T04:23:00;11.90;75.80
67769;DHT22;54569;52.018;5.584;2022-09-20T04:25:36;11.90;75.70
67769;DHT22;54569;52.018;5.584;2022-09-20T04:28:10;11.90;75.80
67769;DHT22;54569;52.018;5.584;2022-09-20T04:30:39;11.90;75.70
67769;DHT22;54569;52.018;5.584;2022-09-20T04:41:58;11.80;76.20
67769;DHT22;54569;52.018;5.584;2022-09-20T04:44:57;11.80;76.60
67769;DHT22;54569;52.018;5.584;2022-09-20T04:48:00;11.70;76.70
67769;DHT22;54569;52.018;5.584;2022-09-20T04:59:53;11.60;76.80
67769;DHT22;54569;52.018;5.584;2022-09-20T05:30:54;11.50;79.60
67769;DHT22;54569;52.018;5.584;2022-09-20T05:39:07;11.60;76.90
67769;DHT22;54569;52.018;5.584;2022-09-20T05:44:55;11.70;77.20
67769;DHT22;54569;52.018;5.584;2022-09-20T05:50:38;11.80;77.00
67769;DHT22;54569;52.018;5.584;2022-09-20T05:56:04;11.90;76.90
67769;DHT22;54569;52.018;5.584;2022-09-20T06:01:41;11.90;76.50
67769;DHT22;54569;52.018;5.584;2022-09-20T06:06:52;11.90;76.40
67769;DHT22;54569;52.018;5.584;2022-09-20T06:09:25;11.90;76.60
67769;DHT22;54569;52.018;5.584;2022-09-20T06:12:24;11.90;79.30
67769;DHT22;54569;52.018;5.584;2022-09-20T06:17:47;12.10;76.30
67769;DHT22;54569;52.018;5.584;2022-09-20T06:23:17;12.10;76.10
67769;DHT22;54569;52.018;5.584;2022-09-20T06:25:51;12.10;75.60
67769;DHT22;54569;52.018;5.584;2022-09-20T06:28:23;12.20;75.90
67769;DHT22;54569;52.018;5.584;2022-09-20T06:30:52;12.20;75.60
67769;DHT22;54569;52.018;5.584;2022-09-20T06:33:21;12.40;75.40
67769;DHT22;54569;52.018;5.584;2022-09-20T06:35:57;12.40;75.20
67769;DHT22;54569;52.018;5.584;2022-09-20T06:42:02;12.70;75.80
67769;DHT22;54569;52.018;5.584;2022-09-20T06:44:28;12.80;74.60
67769;DHT22;54569;52.018;5.584;2022-09-20T06:46:54;12.90;74.50
67769;DHT22;54569;52.018;5.584;2022-09-20T06:49:20;12.90;74.30
67769;DHT22;54569;52.018;5.584;2022-09-20T06:51:47;13.00;74.30
67769;DHT22;54569;52.018;5.584;2022-09-20T06:54:17;13.00;74.20
67769;DHT22;54569;52.018;5.584;2022-09-20T06:56:44;13.10;74.10
67769;DHT22;54569;52.018;5.584;2022-09-20T06:59:11;13.10;74.20
67769;DHT22;54569;52.018;5.584;2022-09-20T07:01:37;13.20;74.10
67769;DHT22;54569;52.018;5.584;2022-09-20T07:04:04;13.30;74.00
67769;DHT22;54569;52.018;5.584;2022-09-20T07:06:31;13.30;73.80
67769;DHT22;54569;52.018;5.584;2022-09-20T07:08:57;13.40;73.80
67769;DHT22;54569;52.018;5.584;2022-09-20T07:11:22;13.50;73.60
67769;DHT22;54569;52.018;5.584;2022-09-20T07:13:53;13.60;73.30
67769;DHT22;54569;52.018;5.584;2022-09-20T07:16:19;13.80;73.80
67769;DHT22;54569;52.018;5.584;2022-09-20T07:18:46;13.90;72.90
67769;DHT22;54569;52.018;5.584;2022-09-20T07:21:14;14.10;72.60
67769;DHT22;54569;52.018;5.584;2022-09-20T07:23:40;14.50;71.90
67769;DHT22;54569;52.018;5.584;2022-09-20T07:26:25;15.20;70.50
67769;DHT22;54569;52.018;5.584;2022-09-20T07:28:53;16.10;69.10
67769;DHT22;54569;52.018;5.584;2022-09-20T07:31:21;17.10;66.20
67769;DHT22;54569;52.018;5.584;2022-09-20T07:33:47;18.20;63.90
67769;DHT22;54569;52.018;5.584;2022-09-20T07:36:13;20.00;60.40
67769;DHT22;54569;52.018;5.584;2022-09-20T07:38:40;22.30;55.90
67769;DHT22;54569;52.018;5.584;2022-09-20T07:41:07;24.60;51.60
67769;DHT22;54569;52.018;5.584;2022-09-20T07:43:33;26.40;48.80
67769;DHT22;54569;52.018;5.584;2022-09-20T07:45:59;27.90;46.70
67769;DHT22;54569;52.018;5.584;2022-09-20T07:48:29;29.40;45.20
67769;DHT22;54569;52.018;5.584;2022-09-20T07:50:58;29.80;44.90
67769;DHT22;54569;52.018;5.584;2022-09-20T07:53:26;29.10;46.30
67769;DHT22;54569;52.018;5.584;2022-09-20T07:58:21;27.50;48.90
67769;DHT22;54569;52.018;5.584;2022-09-20T08:00:52;27.20;50.70
67769;DHT22;54569;52.018;5.584;2022-09-20T08:03:17;27.80;48.50
67769;DHT22;54569;52.018;5.584;2022-09-20T08:05:43;27.10;50.40
67769;DHT22;54569;52.018;5.584;2022-09-20T08:08:09;26.10;53.40
67769;DHT22;54569;52.018;5.584;2022-09-20T08:10:36;25.10;54.40
67769;DHT22;54569;52.018;5.584;2022-09-20T08:13:05;24.20;56.30
67769;DHT22;54569;52.018;5.584;2022-09-20T08:15:31;23.30;58.10
67769;DHT22;54569;52.018;5.584;2022-09-20T08:17:57;22.60;59.20
67769;DHT22;54569;52.018;5.584;2022-09-20T08:20:22;22.20;59.80
67769;DHT22;54569;52.018;5.584;2022-09-20T08:22:48;21.60;60.70
67769;DHT22;54569;52.018;5.584;2022-09-20T08:25:14;21.20;61.30
67769;DHT22;54569;52.018;5.584;2022-09-20T08:27:42;20.60;62.10
67769;DHT22;54569;52.018;5.584;2022-09-20T08:30:08;20.10;62.60
67769;DHT22;54569;52.018;5.584;2022-09-20T08:32:37;19.60;63.30
67769;DHT22;54569;52.018;5.584;2022-09-20T08:35:03;19.00;63.90
67769;DHT22;54569;52.018;5.584;2022-09-20T08:37:29;18.60;64.60
67769;DHT22;54569;52.018;5.584;2022-09-20T08:39:54;18.20;65.00
67769;DHT22;54569;52.018;5.584;2022-09-20T08:44:48;17.70;65.50
67769;DHT22;54569;52.018;5.584;2022-09-20T08:47:26;17.60;65.50
67769;DHT22;54569;52.018;5.584;2022-09-20T08:49:53;17.50;64.80
67769;DHT22;54569;52.018;5.584;2022-09-20T08:52:31;17.30;65.30
67769;DHT22;54569;52.018;5.584;2022-09-20T08:54:58;17.20;65.00
67769;DHT22;54569;52.018;5.584;2022-09-20T08:57:31;17.00;65.90
67769;DHT22;54569;52.018;5.584;2022-09-20T09:00:03;16.80;66.00
67769;DHT22;54569;52.018;5.584;2022-09-20T09:02:31;16.60;66.20
67769;DHT22;54569;52.018;5.584;2022-09-20T09:04:57;16.50;66.70
67769;DHT22;54569;52.018;5.584;2022-09-20T09:07:24;16.40;66.80
67769;DHT22;54569;52.018;5.584;2022-09-20T09:09:52;16.30;67.00
67769;DHT22;54569;52.018;5.584;2022-09-20T09:12:23;16.20;67.00
67769;DHT22;54569;52.018;5.584;2022-09-20T09:14:50;16.20;67.10
67769;DHT22;54569;52.018;5.584;2022-09-20T09:17:29;16.20;66.60
67769;DHT22;54569;52.018;5.584;2022-09-20T09:20:06;16.20;67.20
67769;DHT22;54569;52.018;5.584;2022-09-20T09:22:43;16.30;67.00
67769;DHT22;54569;52.018;5.584;2022-09-20T09:28:24;16.40;66.50
67769;DHT22;54569;52.018;5.584;2022-09-20T09:30:50;16.40;66.70
67769;DHT22;54569;52.018;5.584;2022-09-20T09:33:17;16.60;65.70
67769;DHT22;54569;52.018;5.584;2022-09-20T09:35:58;16.80;64.90
67769;DHT22;54569;52.018;5.584;2022-09-20T09:38:27;17.10;64.50
67769;DHT22;54569;52.018;5.584;2022-09-20T09:41:01;17.70;62.90
67769;DHT22;54569;52.018;5.584;2022-09-20T09:43:28;18.40;61.50
67769;DHT22;54569;52.018;5.584;2022-09-20T09:45:57;18.70;62.00
67769;DHT22;54569;52.018;5.584;2022-09-20T09:48:41;19.30;60.00
67769;DHT22;54569;52.018;5.584;2022-09-20T09:53:40;22.10;54.80
67769;DHT22;54569;52.018;5.584;2022-09-20T10:07:51;24.20;49.50
67769;DHT22;54569;52.018;5.584;2022-09-20T10:10:33;24.00;49.50
67769;DHT22;54569;52.018;5.584;2022-09-20T10:13:13;23.40;51.50
67769;DHT22;54569;52.018;5.584;2022-09-20T10:18:50;22.20;53.80
67769;DHT22;54569;52.018;5.584;2022-09-20T10:21:44;21.70;53.50
67769;DHT22;54569;52.018;5.584;2022-09-20T10:24:20;21.20;55.20
67769;DHT22;54569;52.018;5.584;2022-09-20T10:29:58;21.10;56.50
67769;DHT22;54569;52.018;5.584;2022-09-20T10:32:37;20.80;57.50
67769;DHT22;54569;52.018;5.584;2022-09-20T10:38:14;20.00;57.10
67769;DHT22;54569;52.018;5.584;2022-09-20T10:49:40;18.30;60.70
67769;DHT22;54569;52.018;5.584;2022-09-20T10:55:07;17.90;59.90
67769;DHT22;54569;52.018;5.584;2022-09-20T11:08:19;19.30;59.50
67769;DHT22;54569;52.018;5.584;2022-09-20T11:13:26;20.70;56.30
67769;DHT22;54569;52.018;5.584;2022-09-20T11:16:16;21.80;53.80
67769;DHT22;54569;52.018;5.584;2022-09-20T11:19:26;22.60;52.60
67769;DHT22;54569;52.018;5.584;2022-09-20T11:22:01;23.30;49.10
67769;DHT22;54569;52.018;5.584;2022-09-20T11:25:15;22.90;50.30
67769;DHT22;54569;52.018;5.584;2022-09-20T11:28:06;22.80;49.50
67769;DHT22;54569;52.018;5.584;2022-09-20T11:30:40;22.80;50.80
67769;DHT22;54569;52.018;5.584;2022-09-20T11:33:21;22.70;52.00
67769;DHT22;54569;52.018;5.584;2022-09-20T11:35:53;22.40;52.70
67769;DHT22;54569;52.018;5.584;2022-09-20T11:43:17;21.70;53.50
67769;DHT22;54569;52.018;5.584;2022-09-20T11:45:46;21.60;54.40
67769;DHT22;54569;52.018;5.584;2022-09-20T11:48:34;21.50;54.10
67769;DHT22;54569;52.018;5.584;2022-09-20T11:54:10;21.00;55.10
67769;DHT22;54569;52.018;5.584;2022-09-20T11:56:51;20.70;54.40
67769;DHT22;54569;52.018;5.584;2022-09-20T11:59:49;20.50;55.00
67769;DHT22;54569;52.018;5.584;2022-09-20T12:02:56;20.40;53.80
67769;DHT22;54569;52.018;5.584;2022-09-20T12:07:59;20.30;55.80
67769;DHT22;54569;52.018;5.584;2022-09-20T12:10:28;20.30;55.10
67769;DHT22;54569;52.018;5.584;2022-09-20T12:13:00;20.30;55.00
67769;DHT22;54569;52.018;5.584;2022-09-20T12:15:31;20.30;54.90
67769;DHT22;54569;52.018;5.584;2022-09-20T12:24:23;20.70;54.00
67769;DHT22;54569;52.018;5.584;2022-09-20T12:36:31;21.10;52.50
67769;DHT22;54569;52.018;5.584;2022-09-20T12:41:24;20.90;53.50
67769;DHT22;54569;52.018;5.584;2022-09-20T12:47:24;20.60;50.50
67769;DHT22;54569;52.018;5.584;2022-09-20T12:49:53;20.30;52.10
67769;DHT22;54569;52.018;5.584;2022-09-20T12:55:30;20.10;54.80
67769;DHT22;54569;52.018;5.584;2022-09-20T13:00:34;20.10;54.30
67769;DHT22;54569;52.018;5.584;2022-09-20T13:05:42;20.00;53.10
67769;DHT22;54569;52.018;5.584;2022-09-20T13:09:12;20.00;54.20
67769;DHT22;54569;52.018;5.584;2022-09-20T13:19:05;20.30;53.70
67769;DHT22;54569;52.018;5.584;2022-09-20T13:21:33;20.40;53.40
67769;DHT22;54569;52.018;5.584;2022-09-20T13:24:01;20.40;53.20
67769;DHT22;54569;52.018;5.584;2022-09-20T13:26:55;20.50;53.10
67769;DHT22;54569;52.018;5.584;2022-09-20T13:29:37;20.70;51.10
67769;DHT22;54569;52.018;5.584;2022-09-20T13:35:18;20.90;51.30
67769;DHT22;54569;52.018;5.584;2022-09-20T13:38:00;20.90;50.90
67769;DHT22;54569;52.018;5.584;2022-09-20T13:40:35;20.80;50.90
67769;DHT22;54569;52.018;5.584;2022-09-20T13:45:57;20.50;52.30
67769;DHT22;54569;52.018;5.584;2022-09-20T13:48:25;20.40;53.10
67769;DHT22;54569;52.018;5.584;2022-09-20T13:50:52;20.40;52.90
67769;DHT22;54569;52.018;5.584;2022-09-20T13:53:20;20.50;52.80
67769;DHT22;54569;52.018;5.584;2022-09-20T13:55:45;20.50;52.60
67769;DHT22;54569;52.018;5.584;2022-09-20T13:58:28;20.50;52.30
67769;DHT22;54569;52.018;5.584;2022-09-20T14:01:02;20.60;51.80
67769;DHT22;54569;52.018;5.584;2022-09-20T14:03:32;20.80;52.10
67769;DHT22;54569;52.018;5.584;2022-09-20T14:06:10;20.70;51.80
67769;DHT22;54569;52.018;5.584;2022-09-20T14:08:39;20.50;50.70
67769;DHT22;54569;52.018;5.584;2022-09-20T14:11:18;20.30;52.50
67769;DHT22;54569;52.018;5.584;2022-09-20T14:13:53;20.40;52.50
67769;DHT22;54569;52.018;5.584;2022-09-20T14:16:22;20.40;52.30
67769;DHT22;54569;52.018;5.584;2022-09-20T14:18:49;20.30;52.70
67769;DHT22;54569;52.018;5.584;2022-09-20T14:21:23;20.20;53.10
67769;DHT22;54569;52.018;5.584;2022-09-20T14:23:51;20.20;52.70
67769;DHT22;54569;52.018;5.584;2022-09-20T14:26:24;20.20;53.20
67769;DHT22;54569;52.018;5.584;2022-09-20T14:28:50;20.10;53.40
67769;DHT22;54569;52.018;5.584;2022-09-20T14:31:24;20.00;53.80
67769;DHT22;54569;52.018;5.584;2022-09-20T14:33:57;19.90;53.60
67769;DHT22;54569;52.018;5.584;2022-09-20T14:36:26;19.80;53.80
67769;DHT22;54569;52.018;5.584;2022-09-20T14:39:01;19.70;53.70
67769;DHT22;54569;52.018;5.584;2022-09-20T14:41:39;19.60;54.20
67769;DHT22;54569;52.018;5.584;2022-09-20T14:44:21;19.60;53.80
67769;DHT22;54569;52.018;5.584;2022-09-20T14:46:48;19.70;54.00
67769;DHT22;54569;52.018;5.584;2022-09-20T14:51:53;19.70;54.00
67769;DHT22;54569;52.018;5.584;2022-09-20T14:54:28;19.60;54.20
67769;DHT22;54569;52.018;5.584;2022-09-20T14:56:58;19.50;53.90
67769;DHT22;54569;52.018;5.584;2022-09-20T14:59:33;19.50;54.20
67769;DHT22;54569;52.018;5.584;2022-09-20T15:04:32;19.40;54.40
67769;DHT22;54569;52.018;5.584;2022-09-20T15:07:04;19.20;54.70
67769;DHT22;54569;52.018;5.584;2022-09-20T15:09:31;19.00;55.20
67769;DHT22;54569;52.018;5.584;2022-09-20T15:12:10;18.80;55.70
67769;DHT22;54569;52.018;5.584;2022-09-20T15:14:36;18.70;55.80
67769;DHT22;54569;52.018;5.584;2022-09-20T15:17:02;18.60;56.30
67769;DHT22;54569;52.018;5.584;2022-09-20T15:19:28;18.50;56.60
67769;DHT22;54569;52.018;5.584;2022-09-20T15:21:55;18.40;56.70
67769;DHT22;54569;52.018;5.584;2022-09-20T15:24:21;18.30;56.70
67769;DHT22;54569;52.018;5.584;2022-09-20T15:26:46;18.30;56.80
67769;DHT22;54569;52.018;5.584;2022-09-20T15:29:14;18.20;56.80
67769;DHT22;54569;52.018;5.584;2022-09-20T15:31:42;18.10;57.00
67769;DHT22;54569;52.018;5.584;2022-09-20T15:34:07;18.10;57.10
67769;DHT22;54569;52.018;5.584;2022-09-20T15:36:33;18.10;57.00
67769;DHT22;54569;52.018;5.584;2022-09-20T15:38:59;18.20;56.90
67769;DHT22;54569;52.018;5.584;2022-09-20T15:41:24;18.20;56.70
67769;DHT22;54569;52.018;5.584;2022-09-20T15:43:50;18.20;56.70
67769;DHT22;54569;52.018;5.584;2022-09-20T15:46:21;18.10;56.90
67769;DHT22;54569;52.018;5.584;2022-09-20T15:48:55;18.20;56.90
67769;DHT22;54569;52.018;5.584;2022-09-20T15:51:24;18.20;56.90
67769;DHT22;54569;52.018;5.584;2022-09-20T15:53:55;18.20;56.80
67769;DHT22;54569;52.018;5.584;2022-09-20T15:56:23;18.20;56.90
67769;DHT22;54569;52.018;5.584;2022-09-20T15:58:51;18.10;56.90
67769;DHT22;54569;52.018;5.584;2022-09-20T16:01:24;18.10;57.10
67769;DHT22;54569;52.018;5.584;2022-09-20T16:03:50;18.10;57.10
67769;DHT22;54569;52.018;5.584;2022-09-20T16:06:16;18.00;57.30
67769;DHT22;54569;52.018;5.584;2022-09-20T16:08:42;18.00;57.50
67769;DHT22;54569;52.018;5.584;2022-09-20T16:11:11;17.80;57.30
67769;DHT22;54569;52.018;5.584;2022-09-20T16:13:37;17.70;57.10
67769;DHT22;54569;52.018;5.584;2022-09-20T16:16:07;17.60;57.10
67769;DHT22;54569;52.018;5.584;2022-09-20T16:18:37;17.50;57.20
67769;DHT22;54569;52.018;5.584;2022-09-20T16:21:22;17.30;57.20
67769;DHT22;54569;52.018;5.584;2022-09-20T16:23:50;17.20;57.60
67769;DHT22;54569;52.018;5.584;2022-09-20T16:26:16;17.10;57.80
67769;DHT22;54569;52.018;5.584;2022-09-20T16:28:42;17.00;58.10
67769;DHT22;54569;52.018;5.584;2022-09-20T16:33:52;16.90;57.90
67769;DHT22;54569;52.018;5.584;2022-09-20T16:36:18;16.80;58.40
67769;DHT22;54569;52.018;5.584;2022-09-20T16:38:45;16.80;58.70
67769;DHT22;54569;52.018;5.584;2022-09-20T16:41:10;16.70;58.80
67769;DHT22;54569;52.018;5.584;2022-09-20T16:43:36;16.70;59.10
67769;DHT22;54569;52.018;5.584;2022-09-20T16:46:03;16.60;59.30
67769;DHT22;54569;52.018;5.584;2022-09-20T16:48:29;16.60;59.60
67769;DHT22;54569;52.018;5.584;2022-09-20T16:50:56;16.50;59.80
67769;DHT22;54569;52.018;5.584;2022-09-20T16:53:22;16.50;60.00
67769;DHT22;54569;52.018;5.584;2022-09-20T16:55:47;16.40;60.10
67769;DHT22;54569;52.018;5.584;2022-09-20T16:58:14;16.40;60.20
67769;DHT22;54569;52.018;5.584;2022-09-20T17:00:39;16.30;60.50
67769;DHT22;54569;52.018;5.584;2022-09-20T17:03:05;16.20;60.50
67769;DHT22;54569;52.018;5.584;2022-09-20T17:05:30;16.20;60.50
67769;DHT22;54569;52.018;5.584;2022-09-20T17:07:56;16.20;60.30
67769;DHT22;54569;52.018;5.584;2022-09-20T17:10:22;16.10;60.50
67769;DHT22;54569;52.018;5.584;2022-09-20T17:12:49;16.20;60.70
67769;DHT22;54569;52.018;5.584;2022-09-20T17:15:17;16.10;61.00
67769;DHT22;54569;52.018;5.584;2022-09-20T17:17:44;16.00;60.60
67769;DHT22;54569;52.018;5.584;2022-09-20T17:20:09;15.90;60.50
67769;DHT22;54569;52.018;5.584;2022-09-20T17:22:35;15.90;60.30
67769;DHT22;54569;52.018;5.584;2022-09-20T17:25:01;15.80;60.10
67769;DHT22;54569;52.018;5.584;2022-09-20T17:27:26;15.80;60.20
67769;DHT22;54569;52.018;5.584;2022-09-20T17:29:52;15.70;60.30
67769;DHT22;54569;52.018;5.584;2022-09-20T17:32:18;15.70;60.30
67769;DHT22;54569;52.018;5.584;2022-09-20T17:34:45;15.60;60.30
67769;DHT22;54569;52.018;5.584;2022-09-20T17:37:10;15.60;60.40
67769;DHT22;54569;52.018;5.584;2022-09-20T17:39:36;15.50;60.50
67769;DHT22;54569;52.018;5.584;2022-09-20T17:42:02;15.50;60.50
67769;DHT22;54569;52.018;5.584;2022-09-20T17:44:28;15.40;60.70
67769;DHT22;54569;52.018;5.584;2022-09-20T17:46:54;15.30;60.50
67769;DHT22;54569;52.018;5.584;2022-09-20T17:49:21;15.30;60.70
67769;DHT22;54569;52.018;5.584;2022-09-20T17:51:49;15.20;61.00
67769;DHT22;54569;52.018;5.584;2022-09-20T17:54:16;15.20;61.30
67769;DHT22;54569;52.018;5.584;2022-09-20T17:56:44;15.10;61.60
67769;DHT22;54569;52.018;5.584;2022-09-20T17:59:11;15.00;61.60
67769;DHT22;54569;52.018;5.584;2022-09-20T18:01:38;14.90;61.70
67769;DHT22;54569;52.018;5.584;2022-09-20T18:04:05;14.90;62.00
67769;DHT22;54569;52.018;5.584;2022-09-20T18:06:39;14.80;62.10
67769;DHT22;54569;52.018;5.584;2022-09-20T18:09:12;14.70;62.20
67769;DHT22;54569;52.018;5.584;2022-09-20T18:11:43;14.70;62.30
67769;DHT22;54569;52.018;5.584;2022-09-20T18:14:15;14.60;62.50
67769;DHT22;54569;52.018;5.584;2022-09-20T18:16:40;14.60;62.60
67769;DHT22;54569;52.018;5.584;2022-09-20T18:19:08;14.50;62.50
67769;DHT22;54569;52.018;5.584;2022-09-20T18:21:37;14.50;62.70
67769;DHT22;54569;52.018;5.584;2022-09-20T18:24:07;14.50;62.80
67769;DHT22;54569;52.018;5.584;2022-09-20T18:26:34;14.40;62.70
67769;DHT22;54569;52.018;5.584;2022-09-20T18:29:07;14.40;62.90
67769;DHT22;54569;52.018;5.584;2022-09-20T18:31:39;14.30;63.00
67769;DHT22;54569;52.018;5.584;2022-09-20T18:34:10;14.30;63.30
67769;DHT22;54569;52.018;5.584;2022-09-20T18:36:37;14.20;63.30
67769;DHT22;54569;52.018;5.584;2022-09-20T18:39:06;14.20;63.50
67769;DHT22;54569;52.018;5.584;2022-09-20T18:41:35;14.20;63.50
67769;DHT22;54569;52.018;5.584;2022-09-20T18:44:02;14.10;63.50
67769;DHT22;54569;52.018;5.584;2022-09-20T18:46:29;14.10;63.50
67769;DHT22;54569;52.018;5.584;2022-09-20T18:48:59;14.00;63.60
67769;DHT22;54569;52.018;5.584;2022-09-20T18:51:30;14.00;63.70
67769;DHT22;54569;52.018;5.584;2022-09-20T18:53:56;13.90;63.80
67769;DHT22;54569;52.018;5.584;2022-09-20T18:56:26;13.90;63.90
67769;DHT22;54569;52.018;5.584;2022-09-20T18:59:00;13.90;64.00
67769;DHT22;54569;52.018;5.584;2022-09-20T19:04:25;13.80;64.40
67769;DHT22;54569;52.018;5.584;2022-09-20T19:07:07;13.70;64.30
67769;DHT22;54569;52.018;5.584;2022-09-20T19:10:06;13.70;64.50
67769;DHT22;54569;52.018;5.584;2022-09-20T19:21:31;13.50;65.30
67769;DHT22;54569;52.018;5.584;2022-09-20T19:26:55;13.50;66.00
67769;DHT22;54569;52.018;5.584;2022-09-20T19:29:23;13.40;65.20
67769;DHT22;54569;52.018;5.584;2022-09-20T19:31:52;13.40;65.30
67769;DHT22;54569;52.018;5.584;2022-09-20T19:34:27;13.50;65.40
67769;DHT22;54569;52.018;5.584;2022-09-20T19:42:22;13.50;65.00
67769;DHT22;54569;52.018;5.584;2022-09-20T19:45:12;13.60;65.50
67769;DHT22;54569;52.018;5.584;2022-09-20T19:47:55;13.60;65.50
67769;DHT22;54569;52.018;5.584;2022-09-20T19:50:43;13.60;65.10
67769;DHT22;54569;52.018;5.584;2022-09-20T19:53:16;13.70;65.50
67769;DHT22;54569;52.018;5.584;2022-09-20T19:55:56;13.70;65.10
67769;DHT22;54569;52.018;5.584;2022-09-20T19:58:24;13.70;65.30
67769;DHT22;54569;52.018;5.584;2022-09-20T20:00:50;13.70;64.80
67769;DHT22;54569;52.018;5.584;2022-09-20T20:03:16;13.70;64.80
67769;DHT22;54569;52.018;5.584;2022-09-20T20:05:49;13.70;65.00
67769;DHT22;54569;52.018;5.584;2022-09-20T20:11:13;13.70;65.10
67769;DHT22;54569;52.018;5.584;2022-09-20T20:14:23;13.70;65.60
67769;DHT22;54569;52.018;5.584;2022-09-20T20:16:56;13.70;65.90
67769;DHT22;54569;52.018;5.584;2022-09-20T20:19:45;13.70;65.10
67769;DHT22;54569;52.018;5.584;2022-09-20T20:22:27;13.70;65.70
67769;DHT22;54569;52.018;5.584;2022-09-20T20:24:57;13.70;65.60
67769;DHT22;54569;52.018;5.584;2022-09-20T20:27:23;13.60;65.60
67769;DHT22;54569;52.018;5.584;2022-09-20T20:29:53;13.70;66.40
67769;DHT22;54569;52.018;5.584;2022-09-20T20:32:20;13.60;65.60
67769;DHT22;54569;52.018;5.584;2022-09-20T20:34:46;13.60;65.60
67769;DHT22;54569;52.018;5.584;2022-09-20T20:37:11;13.70;65.80
67769;DHT22;54569;52.018;5.584;2022-09-20T20:39:37;13.70;65.80
67769;DHT22;54569;52.018;5.584;2022-09-20T20:42:03;13.70;65.80
67769;DHT22;54569;52.018;5.584;2022-09-20T20:44:31;13.70;65.90
67769;DHT22;54569;52.018;5.584;2022-09-20T20:47:00;13.70;65.90
67769;DHT22;54569;52.018;5.584;2022-09-20T20:49:25;13.70;66.00
67769;DHT22;54569;52.018;5.584;2022-09-20T20:51:51;13.70;66.00
67769;DHT22;54569;52.018;5.584;2022-09-20T20:54:17;13.70;66.10
67769;DHT22;54569;52.018;5.584;2022-09-20T20:56:42;13.60;66.10
67769;DHT22;54569;52.018;5.584;2022-09-20T20:59:08;13.60;66.30
67769;DHT22;54569;52.018;5.584;2022-09-20T21:01:38;13.60;66.50
67769;DHT22;54569;52.018;5.584;2022-09-20T21:04:07;13.50;66.50
67769;DHT22;54569;52.018;5.584;2022-09-20T21:06:35;13.50;66.60
67769;DHT22;54569;52.018;5.584;2022-09-20T21:09:02;13.40;66.70